South Purmela, Texas
Current Conditions -  °F | °C
As of 12:35 AM on Saturday 20 Dec 2014 (Local Time) from KGOP Reporting Station
Overcast Overcast  
Wind Chill: 46°   Ceiling: 1700
Heat Index: 46°   Visibility: 9mi
Dew Point: 45°   Wind: 3mph
Humidity: 93%   Direction: 10°N
Pressure: 30.22"   Gusts: NA
Location:  31.4714°N, 97.9089°W
Report Text: KGOP 200635Z AUTO 01003KT 9SM OVC017 08/07 A3022 RMK AO2 PWINO
Loading
Personal Weather Stations






























Interactive Weather Map New forecast layout! Learn more

10-Day Weather Forecast

Advertisements
Track Severe Weather on mobile